createdAt,value
2022-08-20T00:01:16.309Z,16.18
2022-08-20T00:03:44.707Z,16.17
2022-08-20T00:06:23.246Z,16.14
2022-08-20T00:08:50.964Z,16.08
2022-08-20T00:11:25.207Z,16.03
2022-08-20T00:13:59.418Z,15.99
2022-08-20T00:16:32.806Z,15.97
2022-08-20T00:19:02.684Z,15.95
2022-08-20T00:21:31.505Z,16.00
2022-08-20T00:23:59.159Z,16.03
2022-08-20T00:26:26.978Z,16.08
2022-08-20T00:28:54.693Z,16.14
2022-08-20T00:31:24.566Z,16.16
2022-08-20T00:33:53.671Z,16.22
2022-08-20T00:36:22.004Z,16.22
2022-08-20T00:38:58.972Z,16.26
2022-08-20T00:41:28.265Z,16.30
2022-08-20T00:44:21.915Z,16.29
2022-08-20T00:46:52.209Z,16.29
2022-08-20T00:49:28.049Z,16.29
2022-08-20T00:52:15.649Z,16.21
2022-08-20T00:54:57.971Z,16.20
2022-08-20T00:58:10.328Z,16.18
2022-08-20T01:00:45.580Z,16.18
2022-08-20T01:03:20.344Z,16.16
2022-08-20T01:05:54.952Z,16.15
2022-08-20T01:08:26.514Z,16.15
2022-08-20T01:11:10.413Z,16.13
2022-08-20T01:13:40.975Z,16.06
2022-08-20T01:16:23.666Z,15.97
2022-08-20T01:18:52.877Z,15.94
2022-08-20T01:21:27.497Z,15.92
2022-08-20T01:24:34.444Z,15.88
2022-08-20T01:27:06.263Z,15.81
2022-08-20T01:29:40.579Z,15.78
2022-08-20T01:32:07.679Z,15.74
2022-08-20T01:34:34.496Z,15.71
2022-08-20T01:37:01.687Z,15.70
2022-08-20T01:39:35.554Z,15.69
2022-08-20T01:42:25.076Z,15.66
2022-08-20T01:44:52.854Z,15.67
2022-08-20T01:47:29.717Z,15.69
2022-08-20T01:50:15.523Z,15.68
2022-08-20T01:52:56.117Z,15.66
2022-08-20T01:55:24.027Z,15.63
2022-08-20T01:57:51.177Z,15.59
2022-08-20T02:00:22.075Z,15.62
2022-08-20T02:02:49.730Z,15.62
2022-08-20T02:05:18.986Z,15.60
2022-08-20T02:07:46.762Z,15.55
2022-08-20T02:10:18.343Z,15.52
2022-08-20T02:12:45.271Z,15.46
2022-08-20T02:15:14.486Z,15.45
2022-08-20T02:17:42.942Z,15.42
2022-08-20T02:20:23.557Z,15.49
2022-08-20T02:22:59.009Z,15.59
2022-08-20T02:25:33.073Z,15.62
2022-08-20T02:28:09.080Z,15.63
2022-08-20T02:30:44.123Z,15.70
2022-08-20T02:33:17.302Z,15.77
2022-08-20T02:35:49.493Z,15.80
2022-08-20T02:38:17.262Z,15.82
2022-08-20T02:40:46.873Z,15.85
2022-08-20T02:43:14.490Z,15.82
2022-08-20T02:45:44.052Z,15.82
2022-08-20T02:48:21.473Z,15.81
2022-08-20T02:51:01.779Z,15.81
2022-08-20T02:53:36.363Z,15.80
2022-08-20T02:56:05.629Z,15.84
2022-08-20T02:58:33.179Z,15.86
2022-08-20T03:00:59.955Z,15.87
2022-08-20T03:03:26.809Z,15.90
2022-08-20T03:05:59.219Z,15.91
2022-08-20T03:08:30.399Z,15.93
2022-08-20T03:10:57.772Z,15.95
2022-08-20T03:13:25.881Z,15.99
2022-08-20T03:15:59.351Z,16.05
2022-08-20T03:18:35.873Z,16.07
2022-08-20T03:21:07.739Z,16.09
2022-08-20T03:23:40.363Z,16.08
2022-08-20T03:26:12.337Z,16.09
2022-08-20T03:28:42.643Z,16.12
2022-08-20T03:31:12.674Z,16.12
2022-08-20T03:33:52.953Z,16.16
2022-08-20T03:36:28.095Z,16.18
2022-08-20T03:39:00.427Z,16.22
2022-08-20T03:41:32.175Z,16.28
2022-08-20T03:43:59.245Z,16.30
2022-08-20T03:46:29.110Z,16.28
2022-08-20T03:48:58.707Z,16.33
2022-08-20T03:51:30.406Z,16.36
2022-08-20T03:53:58.733Z,16.37
2022-08-20T03:56:27.138Z,16.39
2022-08-20T03:58:54.670Z,16.40
2022-08-20T04:01:44.571Z,16.40
2022-08-20T04:04:12.306Z,16.42
2022-08-20T04:06:41.472Z,16.48
2022-08-20T04:09:12.150Z,16.48
2022-08-20T04:11:43.410Z,16.51
2022-08-20T04:14:11.979Z,16.52
2022-08-20T04:16:46.334Z,16.50
2022-08-20T04:19:15.583Z,16.51
2022-08-20T04:21:42.396Z,16.52
2022-08-20T04:24:22.731Z,16.55
2022-08-20T04:26:56.677Z,16.59
2022-08-20T04:29:35.677Z,16.57
2022-08-20T04:32:06.398Z,16.58
2022-08-20T04:34:48.811Z,16.60
2022-08-20T04:37:26.869Z,16.65
2022-08-20T04:40:14.439Z,16.69
2022-08-20T04:42:43.568Z,16.73
2022-08-20T04:45:11.368Z,16.77
2022-08-20T04:47:38.310Z,16.82
2022-08-20T04:52:52.819Z,16.95
2022-08-20T04:58:18.027Z,17.09
2022-08-20T05:01:01.087Z,17.18
2022-08-20T05:03:33.586Z,17.26
2022-08-20T05:06:01.791Z,17.33
2022-08-20T05:08:30.025Z,17.38
2022-08-20T05:11:21.533Z,17.41
2022-08-20T05:13:45.878Z,17.49
2022-08-20T05:16:20.820Z,17.54
2022-08-20T05:18:50.541Z,17.58
2022-08-20T05:21:21.197Z,17.65
2022-08-20T05:23:49.372Z,17.68
2022-08-20T05:26:23.680Z,17.74
2022-08-20T05:28:58.616Z,17.81
2022-08-20T05:31:33.287Z,17.91
2022-08-20T05:34:13.170Z,18.00
2022-08-20T05:36:52.153Z,18.06
2022-08-20T05:39:23.599Z,18.13
2022-08-20T05:41:59.089Z,18.11
2022-08-20T05:44:26.032Z,18.08
2022-08-20T05:46:53.075Z,18.09
2022-08-20T05:49:21.874Z,18.11
2022-08-20T05:51:53.176Z,18.18
2022-08-20T05:54:20.066Z,18.19
2022-08-20T05:56:47.396Z,18.20
2022-08-20T05:59:14.688Z,18.29
2022-08-20T06:01:43.226Z,18.44
2022-08-20T06:04:29.718Z,18.43
2022-08-20T06:07:07.389Z,18.56
2022-08-20T06:09:36.148Z,18.74
2022-08-20T06:12:08.515Z,19.02
2022-08-20T06:14:36.923Z,19.20
2022-08-20T06:17:15.181Z,19.26
2022-08-20T06:19:45.765Z,19.52
2022-08-20T06:22:18.965Z,19.52
2022-08-20T06:24:56.404Z,19.88
2022-08-20T06:27:24.806Z,20.24
2022-08-20T06:29:53.813Z,20.54
2022-08-20T06:32:32.473Z,20.76
2022-08-20T06:35:03.793Z,21.03
2022-08-20T06:37:33.706Z,21.42
2022-08-20T06:40:09.006Z,21.81
2022-08-20T06:42:36.904Z,22.15
2022-08-20T06:45:05.704Z,22.31
2022-08-20T06:47:34.397Z,22.46
2022-08-20T06:50:01.304Z,22.70
2022-08-20T06:52:48.078Z,23.04
2022-08-20T06:55:17.535Z,23.35
2022-08-20T06:57:45.472Z,23.66
2022-08-20T07:00:20.720Z,23.64
2022-08-20T07:02:48.100Z,23.93
2022-08-20T07:05:16.363Z,24.20
2022-08-20T07:07:51.093Z,24.21
2022-08-20T07:10:22.008Z,24.33
2022-08-20T07:12:51.116Z,24.33
2022-08-20T07:15:23.056Z,23.98
2022-08-20T07:18:01.730Z,24.06
2022-08-20T07:20:32.089Z,23.74
2022-08-20T07:23:00.832Z,23.62
2022-08-20T07:25:29.747Z,23.95
2022-08-20T07:28:19.439Z,23.86
2022-08-20T07:31:13.211Z,23.23
2022-08-20T07:33:42.646Z,23.09
2022-08-20T07:36:12.994Z,22.90
2022-08-20T07:38:40.829Z,23.06
2022-08-20T07:41:13.523Z,23.41
2022-08-20T07:43:43.232Z,23.97
2022-08-20T07:46:10.183Z,23.93
2022-08-20T07:48:46.148Z,24.29
2022-08-20T07:51:17.723Z,24.63
2022-08-20T07:53:47.800Z,24.34
2022-08-20T07:56:24.134Z,24.09
2022-08-20T07:58:58.931Z,24.42
2022-08-20T08:01:31.666Z,24.41
2022-08-20T08:04:00.600Z,24.31
2022-08-20T08:06:31.550Z,24.46
2022-08-20T08:09:14.523Z,24.43
2022-08-20T08:11:50.535Z,24.72
2022-08-20T08:14:29.693Z,24.95
2022-08-20T08:17:03.376Z,25.06
2022-08-20T08:19:38.640Z,25.05
2022-08-20T08:22:16.277Z,25.07
2022-08-20T08:24:57.464Z,25.05
2022-08-20T08:27:25.236Z,24.79
2022-08-20T08:29:51.893Z,25.04
2022-08-20T08:32:18.598Z,25.28
2022-08-20T08:34:47.555Z,25.42
2022-08-20T08:37:14.226Z,25.47
2022-08-20T08:39:43.759Z,25.44
2022-08-20T08:42:55.517Z,25.45
2022-08-20T08:45:22.673Z,25.45
2022-08-20T08:47:50.130Z,25.37
2022-08-20T08:50:52.879Z,25.30
2022-08-20T08:53:44.627Z,25.32
2022-08-20T08:56:14.552Z,25.75
2022-08-20T08:58:46.818Z,25.86
2022-08-20T09:01:55.573Z,25.77
2022-08-20T09:04:10.465Z,26.07
2022-08-20T09:06:39.403Z,26.28
2022-08-20T09:09:32.843Z,26.28
2022-08-20T09:12:28.798Z,26.35
2022-08-20T09:14:55.890Z,26.14
2022-08-20T09:17:23.833Z,26.31
2022-08-20T09:19:52.454Z,26.36
2022-08-20T09:22:25.877Z,26.29
2022-08-20T09:24:56.332Z,26.31
2022-08-20T09:27:22.977Z,26.33
2022-08-20T09:29:50.269Z,26.43
2022-08-20T09:32:23.566Z,26.85
2022-08-20T09:34:59.413Z,27.17
2022-08-20T09:37:36.661Z,26.72
2022-08-20T09:40:08.586Z,25.88
2022-08-20T09:42:41.433Z,25.15
2022-08-20T09:45:11.479Z,24.87
2022-08-20T09:47:54.979Z,25.08
2022-08-20T09:50:25.975Z,25.92
2022-08-20T09:52:57.301Z,25.38
2022-08-20T09:55:38.360Z,25.37
2022-08-20T09:58:43.441Z,25.06
2022-08-20T10:01:16.957Z,25.06
2022-08-20T10:03:49.442Z,25.39
2022-08-20T10:06:20.804Z,25.62
2022-08-20T10:08:50.105Z,25.84
2022-08-20T10:11:18.376Z,26.31
2022-08-20T10:13:45.927Z,26.42
2022-08-20T10:16:12.986Z,26.55
2022-08-20T10:18:39.937Z,26.52
2022-08-20T10:21:13.377Z,26.65
2022-08-20T10:23:40.840Z,26.79
2022-08-20T10:26:13.445Z,26.77
2022-08-20T10:28:43.422Z,26.82
2022-08-20T10:31:12.971Z,26.76
2022-08-20T10:33:42.081Z,26.59
2022-08-20T10:36:17.813Z,26.25
2022-08-20T10:38:49.047Z,26.47
2022-08-20T10:41:16.140Z,26.53
2022-08-20T10:43:45.098Z,26.47
2022-08-20T10:46:12.743Z,26.69
2022-08-20T10:48:40.039Z,26.88
2022-08-20T10:51:07.052Z,26.92
2022-08-20T10:53:36.895Z,26.62
2022-08-20T10:56:04.127Z,26.53
2022-08-20T10:58:39.719Z,26.14
2022-08-20T11:01:08.253Z,26.14
2022-08-20T11:03:35.730Z,26.42
2022-08-20T11:06:03.412Z,26.45
2022-08-20T11:08:33.421Z,26.18
2022-08-20T11:11:01.302Z,26.59
2022-08-20T11:13:28.165Z,26.63
2022-08-20T11:15:54.833Z,26.09
2022-08-20T11:18:24.608Z,25.70
2022-08-20T11:20:51.387Z,25.79
2022-08-20T11:23:18.132Z,26.21
2022-08-20T11:25:44.859Z,26.46
2022-08-20T11:28:12.981Z,26.71
2022-08-20T11:30:39.719Z,26.96
2022-08-20T11:33:07.402Z,26.93
2022-08-20T11:35:49.356Z,27.05
2022-08-20T11:38:19.039Z,27.07
2022-08-20T11:40:46.991Z,26.73
2022-08-20T11:43:17.299Z,26.04
2022-08-20T11:45:50.185Z,25.57
2022-08-20T11:48:17.880Z,25.71
2022-08-20T11:50:45.141Z,26.08
2022-08-20T11:53:11.805Z,26.26
2022-08-20T11:55:39.602Z,26.25
2022-08-20T11:58:07.130Z,26.24
2022-08-20T12:00:36.700Z,26.32
2022-08-20T12:03:08.723Z,26.34
2022-08-20T12:05:43.590Z,26.31
2022-08-20T12:08:25.094Z,26.14
2022-08-20T12:10:54.808Z,26.16
2022-08-20T12:13:21.567Z,26.18
2022-08-20T12:15:58.721Z,26.16
2022-08-20T12:18:27.096Z,26.05
2022-08-20T12:20:55.176Z,26.01
2022-08-20T12:23:21.840Z,26.34
2022-08-20T12:25:49.731Z,26.61
2022-08-20T12:28:17.095Z,26.71
2022-08-20T12:30:49.737Z,26.68
2022-08-20T12:33:16.482Z,26.53
2022-08-20T12:35:43.321Z,26.51
2022-08-20T12:38:10.044Z,26.35
2022-08-20T12:40:36.958Z,26.18
2022-08-20T12:43:04.950Z,26.07
2022-08-20T12:45:33.945Z,26.13
2022-08-20T12:48:12.172Z,26.18
2022-08-20T12:50:44.013Z,26.23
2022-08-20T12:53:10.822Z,26.20
2022-08-20T12:55:37.795Z,26.36
2022-08-20T12:58:10.021Z,26.37
2022-08-20T13:00:46.495Z,26.37
2022-08-20T13:03:19.808Z,26.12
2022-08-20T13:05:48.072Z,25.64
2022-08-20T13:08:15.056Z,25.68
2022-08-20T13:10:45.764Z,25.67
2022-08-20T13:13:17.459Z,25.76
2022-08-20T13:15:49.691Z,26.45
2022-08-20T13:18:16.645Z,26.84
2022-08-20T13:20:43.527Z,27.00
2022-08-20T13:23:10.509Z,27.18
2022-08-20T13:25:37.321Z,27.33
2022-08-20T13:28:05.584Z,27.34
2022-08-20T13:30:38.509Z,26.74
2022-08-20T13:33:05.279Z,26.41
2022-08-20T13:35:32.275Z,26.01
2022-08-20T13:37:59.384Z,26.16
2022-08-20T13:40:28.279Z,26.28
2022-08-20T13:42:54.946Z,26.33
2022-08-20T13:45:21.773Z,26.39
2022-08-20T13:47:54.745Z,26.59
2022-08-20T13:50:25.636Z,26.47
2022-08-20T13:52:54.310Z,26.38
2022-08-20T13:55:28.216Z,26.31
2022-08-20T13:57:57.542Z,26.17
2022-08-20T14:00:32.123Z,25.86
2022-08-20T14:03:02.470Z,25.29
2022-08-20T14:05:31.429Z,25.24
2022-08-20T14:08:22.709Z,25.38
2022-08-20T14:10:51.575Z,25.74
2022-08-20T14:13:23.385Z,25.86
2022-08-20T14:15:51.077Z,25.88
2022-08-20T14:18:18.806Z,25.84
2022-08-20T14:20:46.174Z,25.68
2022-08-20T14:23:15.165Z,25.51
2022-08-20T14:25:47.596Z,25.52
2022-08-20T14:28:25.082Z,25.70
2022-08-20T14:30:53.619Z,26.12
2022-08-20T14:33:23.698Z,26.22
2022-08-20T14:35:51.693Z,25.83
2022-08-20T14:38:18.424Z,25.63
2022-08-20T14:40:45.234Z,25.47
2022-08-20T14:43:12.126Z,24.98
2022-08-20T14:45:39.092Z,24.78
2022-08-20T14:48:09.206Z,24.93
2022-08-20T14:50:38.383Z,25.74
2022-08-20T14:53:06.681Z,25.65
2022-08-20T14:55:37.784Z,25.01
2022-08-20T14:58:14.930Z,25.21
2022-08-20T15:00:43.425Z,25.55
2022-08-20T15:03:10.236Z,25.75
2022-08-20T15:05:39.245Z,25.73
2022-08-20T15:08:07.698Z,25.24
2022-08-20T15:10:34.685Z,25.23
2022-08-20T15:13:02.427Z,25.24
2022-08-20T15:15:29.606Z,25.62
2022-08-20T15:18:02.400Z,26.10
2022-08-20T15:20:35.331Z,25.69
2022-08-20T15:23:04.636Z,26.05
2022-08-20T15:25:37.709Z,26.64
2022-08-20T15:28:09.807Z,26.90
2022-08-20T15:30:41.487Z,26.89
2022-08-20T15:33:10.435Z,26.79
2022-08-20T15:35:37.262Z,26.68
2022-08-20T15:38:04.118Z,26.77
2022-08-20T15:40:33.419Z,26.37
2022-08-20T15:43:03.606Z,25.84
2022-08-20T15:45:31.632Z,25.18
2022-08-20T15:48:21.026Z,24.65
2022-08-20T15:50:47.621Z,24.45
2022-08-20T15:53:36.575Z,24.09
2022-08-20T15:56:44.911Z,23.85
2022-08-20T15:59:39.209Z,23.78
2022-08-20T16:02:25.098Z,23.47
2022-08-20T16:05:21.491Z,23.67
2022-08-20T16:08:29.964Z,23.83
2022-08-20T16:11:23.035Z,23.98
2022-08-20T16:13:55.777Z,24.22
2022-08-20T16:16:44.798Z,24.50
2022-08-20T16:19:27.265Z,24.23
2022-08-20T16:21:59.009Z,23.52
2022-08-20T16:24:25.943Z,23.11
2022-08-20T16:27:13.565Z,23.10
2022-08-20T16:30:02.914Z,23.10
2022-08-20T16:32:50.368Z,23.45
2022-08-20T16:35:42.113Z,23.61
2022-08-20T16:38:59.156Z,23.41
2022-08-20T16:41:49.527Z,23.37
2022-08-20T16:44:22.250Z,23.24
2022-08-20T16:47:11.741Z,23.27
2022-08-20T16:49:51.982Z,23.26
2022-08-20T16:52:18.874Z,23.21
2022-08-20T16:54:45.926Z,23.22
2022-08-20T16:57:17.175Z,23.36
2022-08-20T17:00:10.942Z,23.52
2022-08-20T17:03:00.662Z,23.78
2022-08-20T17:05:56.063Z,23.74
2022-08-20T17:08:49.990Z,23.65
2022-08-20T17:11:33.144Z,23.44
2022-08-20T17:14:19.467Z,23.26
2022-08-20T17:16:52.112Z,22.70
2022-08-20T17:19:29.360Z,22.08
2022-08-20T17:22:17.947Z,21.59
2022-08-20T17:24:44.698Z,21.25
2022-08-20T17:27:29.005Z,21.00
2022-08-20T17:30:35.678Z,20.84
2022-08-20T17:33:17.918Z,20.71
2022-08-20T17:36:00.737Z,20.57
2022-08-20T17:38:39.159Z,20.49
2022-08-20T17:41:23.579Z,20.38
2022-08-20T17:44:02.387Z,20.27
2022-08-20T17:46:42.422Z,20.22
2022-08-20T17:49:17.591Z,20.18
2022-08-20T17:51:54.776Z,20.12
2022-08-20T17:54:32.859Z,20.09
2022-08-20T17:57:14.278Z,20.04
2022-08-20T18:00:00.599Z,19.94
2022-08-20T18:02:31.200Z,19.89
2022-08-20T18:04:58.133Z,19.82
2022-08-20T18:07:55.574Z,19.73
2022-08-20T18:10:27.230Z,19.64
2022-08-20T18:13:45.143Z,19.49
2022-08-20T18:16:41.139Z,19.37
2022-08-20T18:20:21.181Z,19.24
2022-08-20T18:23:14.574Z,19.10
2022-08-20T18:26:00.835Z,19.02
2022-08-20T18:28:58.536Z,18.95
2022-08-20T18:31:51.742Z,18.84
2022-08-20T18:34:36.740Z,18.72
2022-08-20T18:37:12.626Z,18.59
2022-08-20T18:39:48.844Z,18.50
2022-08-20T18:42:21.871Z,18.42
2022-08-20T18:44:53.902Z,18.34
2022-08-20T18:47:34.195Z,18.30
2022-08-20T18:50:16.166Z,18.25
2022-08-20T18:53:04.925Z,18.22
2022-08-20T18:55:47.785Z,18.18
2022-08-20T18:59:06.779Z,18.15
2022-08-20T19:01:38.712Z,18.14
2022-08-20T19:04:28.018Z,18.14
2022-08-20T19:07:06.175Z,18.12
2022-08-20T19:10:04.084Z,18.11
2022-08-20T19:13:29.687Z,18.05
2022-08-20T19:16:13.344Z,18.07
2022-08-20T19:18:55.615Z,18.10
2022-08-20T19:21:37.516Z,18.10
2022-08-20T19:24:21.310Z,18.07
2022-08-20T19:27:00.210Z,18.05
2022-08-20T19:29:34.428Z,18.05
2022-08-20T19:32:08.429Z,18.02
2022-08-20T19:34:39.391Z,18.01
2022-08-20T19:37:35.604Z,17.99
2022-08-20T19:40:28.582Z,17.98
2022-08-20T19:43:03.104Z,17.91
2022-08-20T19:45:46.475Z,17.86
2022-08-20T19:48:55.690Z,17.78
2022-08-20T19:51:45.826Z,17.71
2022-08-20T19:54:25.983Z,17.61
2022-08-20T19:57:07.469Z,17.55
2022-08-20T19:59:35.104Z,17.46
2022-08-20T20:02:20.447Z,17.34
2022-08-20T20:04:54.919Z,17.25
2022-08-20T20:07:39.831Z,17.21
2022-08-20T20:10:31.765Z,17.18
2022-08-20T20:13:08.239Z,17.10
2022-08-20T20:15:37.827Z,17.03
2022-08-20T20:18:07.270Z,16.99
2022-08-20T20:20:57.018Z,16.97
2022-08-20T20:23:45.525Z,16.91
2022-08-20T20:26:20.245Z,16.88
2022-08-20T20:29:00.458Z,16.89
2022-08-20T20:31:44.888Z,16.83
2022-08-20T20:34:15.581Z,16.81
2022-08-20T20:36:48.298Z,16.81
2022-08-20T20:39:36.849Z,16.85
2022-08-20T20:42:09.302Z,16.87
2022-08-20T20:44:41.777Z,16.84
2022-08-20T20:47:23.051Z,16.82
2022-08-20T20:50:06.675Z,16.79
2022-08-20T20:52:48.783Z,16.78
2022-08-20T20:55:21.296Z,16.75
2022-08-20T20:57:50.929Z,16.68
2022-08-20T21:00:23.223Z,16.59
2022-08-20T21:02:50.117Z,16.53
2022-08-20T21:05:24.933Z,16.47
2022-08-20T21:08:00.723Z,16.45
2022-08-20T21:10:35.055Z,16.44
2022-08-20T21:13:04.692Z,16.47
2022-08-20T21:15:34.775Z,16.39
2022-08-20T21:18:07.074Z,16.34
2022-08-20T21:20:34.797Z,16.28
2022-08-20T21:23:01.489Z,16.17
2022-08-20T21:25:32.332Z,16.05
2022-08-20T21:28:00.011Z,15.89
2022-08-20T21:30:28.193Z,15.75
2022-08-20T21:32:55.290Z,15.61
2022-08-20T21:35:22.459Z,15.47
2022-08-20T21:37:49.310Z,15.28
2022-08-20T21:40:21.454Z,15.13
2022-08-20T21:42:49.168Z,15.01
2022-08-20T21:45:18.405Z,14.94
2022-08-20T21:47:46.866Z,14.94
2022-08-20T21:50:21.205Z,14.98
2022-08-20T21:52:59.523Z,15.04
2022-08-20T21:55:39.270Z,15.02
2022-08-20T21:58:09.285Z,14.99
2022-08-20T22:00:55.871Z,14.97
2022-08-20T22:03:35.024Z,14.90
2022-08-20T22:06:11.853Z,14.86
2022-08-20T22:08:39.443Z,14.81
2022-08-20T22:11:10.760Z,14.77
2022-08-20T22:13:45.569Z,14.70
2022-08-20T22:16:19.438Z,14.57
2022-08-20T22:18:49.298Z,14.44
2022-08-20T22:21:31.413Z,14.37
2022-08-20T22:24:04.014Z,14.36
2022-08-20T22:26:35.885Z,14.37
2022-08-20T22:29:04.112Z,14.37
2022-08-20T22:31:36.312Z,14.34
2022-08-20T22:34:05.219Z,14.36
2022-08-20T22:36:33.439Z,14.37
2022-08-20T22:39:00.937Z,14.35
2022-08-20T22:41:28.296Z,14.33
2022-08-20T22:43:56.292Z,14.31
2022-08-20T22:46:30.300Z,14.31
2022-08-20T22:48:57.505Z,14.27
2022-08-20T22:51:38.730Z,14.20
2022-08-20T22:54:11.223Z,14.13
2022-08-20T22:56:38.742Z,14.09
2022-08-20T22:59:08.370Z,14.09
2022-08-20T23:01:36.642Z,14.12
2022-08-20T23:04:25.052Z,14.09
2022-08-20T23:06:55.620Z,14.11
2022-08-20T23:09:22.998Z,14.11
2022-08-20T23:11:52.435Z,14.10
2022-08-20T23:14:21.877Z,14.09
2022-08-20T23:17:01.721Z,14.10
2022-08-20T23:19:28.988Z,14.09
2022-08-20T23:21:58.742Z,14.08
2022-08-20T23:24:26.035Z,14.04
2022-08-20T23:26:53.632Z,14.03
2022-08-20T23:29:25.510Z,14.00
2022-08-20T23:31:56.048Z,14.00
2022-08-20T23:34:24.121Z,13.97
2022-08-20T23:36:52.570Z,13.95
2022-08-20T23:39:20.311Z,13.95
2022-08-20T23:41:48.177Z,13.92
2022-08-20T23:44:25.222Z,13.89
2022-08-20T23:47:02.141Z,13.90
2022-08-20T23:49:32.155Z,13.87
2022-08-20T23:52:00.696Z,13.84
2022-08-20T23:54:30.794Z,13.83
2022-08-20T23:56:57.886Z,13.79
2022-08-20T23:59:25.503Z,13.79
